Portada
METAR-TAF:

METAR-TAF

Aeropuertos :

Aeropuerto Internacional Faa'a

Tahití, Polinesia Francesa

latitud: 17-33S, longitud: 149-37W, altitud: 2 m

Observación

El informe se hizo hace 18 minutos, a las 08:00 UTC
Viento 4 kt del este, variando entre noreste y este-sureste
Temperatura 26°C
Humedad 70%
Presión 1013 hPa
Visibilidad 10 km o más
Escasas nubes a una altura de 2600 ft
Cielo cubierto a una altura de 26000 ft

METAR: NTAA 140800Z 09004KT 040V120 9999 FEW026 OVC260 26/20 Q1013 NOSIG

Hora: 22:18 (08:18 UTC)

Pronóstico

El informe se hizo hace 3 horas y 18 minutos, a las 05:00 UTC
Pronóstico válido del 14 a las 06 UTC al 15 a las 12 UTC
Viento 6 kt del noreste
Visibilidad 10 km o más
Escasas nubes a una altura de 2500 ft
Cielo nuboso a una altura de 26000 ft
Probabilidad 40% :
Temporalmente
del 14 a las 20 UTC al 15 a las 03 UTC
Viento 12 kt del noreste

TAF: NTAA 140500Z 1406/1512 05006KT 9999 FEW025 BKN260 PROB40 TEMPO 1420/1503 05012KT

Observaciones y pronósticos meteorológicos de más de 4000 aeropuertos (mensajes METAR y TAF).

Los puntos amarillos y rojos representan las estaciones disponibles.

Ponga el ratón en el punto deseado para ver el nombre de la estación.

Haga clic para ver las observaciones y los pronósticos meteorológicos.

Para cambiar el mapa : haga clic en los botones verdes con una cruz de color negro para hacer un zoom, en el botón verde con un guión para alejar o en las flechas verdes para mapas adyacentes.


METAR-TAF: